EDDF/FRA METAR and TAF weather

Enter ICAO airport designator
Station Type Date Time Source
EDDF METAR 2020/12/05 04:20 UTC NOAA

EDDF 050420Z 20004KT 180V250 6000 -SNRA FEW004 SCT009 BKN035 01/00 Q0995 R25L/29//95 R25C/29//95 R25R/////// R18/29//95 TEMPO 4000 BKN009


Station Type Date Time Source
EDDF Decoded METAR 2020/12/05 04:20 UTC NOAA

Frankfurt / M-Flughafen, Germany (EDDF) 50-03N 008-36E 113M
Dec 04, 2020 - 11:20 PM EST / 2020.12.05 0420 UTC
Wind: from the SSW (200 degrees) at 5 MPH (4 KT) (direction variable):0
Visibility: 3 mile(s):0
Sky conditions: mostly cloudy
Weather: light snow, rain
Temperature: 33 F (1 C)
Windchill: 28 F (-2 C):1
Dew Point: 32 F (0 C)
Relative Humidity: 93%
Pressure (altimeter): 29.38 in. Hg (0995 hPa)
ob: EDDF 050420Z 20004KT 180V250 6000 -SNRA FEW004 SCT009 BKN035 01/00 Q0995 R25L/29//95 R25C/29//95 R25R/////// R18/29//95 TEMPO 4000 BKN009
cycle: 4

Station Type Date Time Source
EDDF TAF 2020/12/04 18:27 UTC NOAA

TAF TAF EDDF 041700Z 0418/0524 04004KT 9999 BKN030
TEMPO 0418/0422 SCT030 PROB40
TEMPO 0423/0505 4000 RA BR BKN008
BECMG 0500/0502 BKN012 PROB30
TEMPO 0502/0504 2000 -SNRA
TEMPO 0502/0507 2000 BCFG BKN003
BECMG 0503/0505 20005KT
BECMG 0507/0510 SCT008 BKN025
BECMG 0512/0514 09004KT
TEMPO 0516/0522 SCT025

Example: see airport list